METAR AND TAF INFORMATION
METAR FOR LFMO
ADDS - METARS form results

(0452 UTC 03 February 2023)
Data provider http://aviationweather.gov/metar/data/
 
METAR text: LFMO 030430Z AUTO 35023KT CAVOK 07/01 Q1030 BECMG 34025G40KT
Conditions at: LFMO (ORANGE/CARITAT(F, FR) observed 0430 UTC 03 February 2023
Temperature: 7.0°C (45°F)
Dewpoint: 1.0°C (34°F) [RH = 66%]
Pressure (altimeter): 30.41 inches Hg (1030.0 mb)
Winds: from the N (350 degrees) at 26 MPH (23 knots; 11.8 m/s)
Visibility: 6 or more miles (10+ km)
Ceiling: ceiling and visibility are OK
Clouds: unknown
Weather: no significant weather observed at this time

METAR text: LFMO 030400Z AUTO 35025KT CAVOK 07/01 Q1029 BECMG 34025G40KT
Conditions at: LFMO (ORANGE/CARITAT(F, FR) observed 0400 UTC 03 February 2023
Temperature: 7.0°C (45°F)
Dewpoint: 1.0°C (34°F) [RH = 66%]
Pressure (altimeter): 30.38 inches Hg (1029.0 mb)
Winds: from the N (350 degrees) at 29 MPH (25 knots; 12.9 m/s)
Visibility: 6 or more miles (10+ km)
Ceiling: ceiling and visibility are OK
Clouds: unknown
Weather: no significant weather observed at this time

Forecast for: LFMO (ORANGE/CARITAT(F, FR)
Text: TAF LFMO 030200Z 0303/0403 34025G40KT CAVOK TX12/0314Z TN05/0305Z
Forecast period: 0300 UTC 03 February 2023 to 0300 UTC 04 February 2023
Forecast type: FROM: standard forecast or significant change
Winds: from the NNW (340 degrees) at 29 MPH (25 knots; 12.9 m/s)
gusting to 46 MPH (40 knots; 20.6 m/s)
Visibility: 6 or more miles (10+ km)
Ceiling: unknown
Clouds: missing
Weather: no significant weather forecast for this period
Text: PROB30
Forecast period: 2300 UTC 03 February 2023 to 0300 UTC 04 February 2023
Forecast type: TEMPORARY: The following changes expected for less than half the time period
Winds: from the N (350 degrees) at 34 MPH (30 knots; 15.4 m/s)
gusting to 57 MPH (50 knots; 25.7 m/s)
Visibility: missing
Ceiling: unknown
Clouds: missing
Weather: no significant weather forecast for this period

 AIRPORT MAP

 RUNWAY INFORMATION
Runway 14 Runway length 0 ft Runway width 0 ft
Runway elevation 195 ft Runway displaced threshold 0 ft Runway heading 0
Runway 32 Runway length 0 ft Runway width 0 ft
Runway elevation 187 ft Runway displaced threshold 0 ft Runway heading 0
Runway 15 Runway length 7909 ft Runway width 197 ft
Runway elevation 195 ft Runway displaced threshold 0 ft Runway heading 144
Runway 33 Runway length 7909 ft Runway width 197 ft
Runway elevation 187 ft Runway displaced threshold 0 ft Runway heading 324

 AIRPORT FREQUENCIES
Type APP Name ORANGE APP Frequency 142.45 MHZ
Type TWR Name ORANGE TWR Frequency 120.7 MHZ

 AIRPORT NEAR NAVIGATION AIDS
Type TACAN Name Orange Frequency 109400 KHZ
Type NDB Name Orange Frequency 328 KHZ



Powered by Virtual Airlines Manager [v2.6.2]